Time;durP1;ratioP1;P1;durP2;ratioP2;P2;SDS_P1;SDS_P2;PMS_P1;PMS_P2;Temp;Humidity;BMP_temperature;BMP_pressure;BME280_temperature;BME280_humidity;BME280_pressure;Samples;Min_cycle;Max_cycle;Signal;HPM_P1;HPM_P2
2022/05/25 00:00:00;;;;;;;1.98;1.75;;;13.20;89.00;;;;;;4978121;28;20038;-74
2022/05/25 00:02:27;;;;;;;1.95;1.80;;;13.20;88.60;;;;;;4981939;28;20038;-74
2022/05/25 00:04:54;;;;;;;2.20;1.67;;;13.20;88.80;;;;;;4976565;28;20035;-73
2022/05/25 00:07:21;;;;;;;1.92;1.63;;;13.20;89.00;;;;;;4976762;28;20037;-74
2022/05/25 00:09:46;;;;;;;2.70;1.70;;;13.20;89.20;;;;;;4970672;28;20089;-74
2022/05/25 00:12:13;;;;;;;1.70;1.60;;;13.10;89.20;;;;;;4974856;28;20479;-73
2022/05/25 00:14:39;;;;;;;2.60;1.60;;;13.10;89.20;;;;;;4982671;28;20073;-74
2022/05/25 00:17:05;;;;;;;2.00;1.80;;;13.10;89.10;;;;;;4977869;28;20031;-73
2022/05/25 00:22:16;;;;;;;3.30;1.67;;;12.90;89.00;;;;;;4978315;28;20039;-73
2022/05/25 00:24:42;;;;;;;1.45;1.35;;;12.80;89.50;;;;;;4978477;28;20037;-73
2022/05/25 00:27:08;;;;;;;3.85;1.58;;;12.80;90.00;;;;;;4980069;28;20030;-73
2022/05/25 00:29:36;;;;;;;3.22;1.90;;;12.80;90.30;;;;;;4973891;28;20419;-74
2022/05/25 00:32:03;;;;;;;2.50;2.10;;;12.80;90.40;;;;;;4977520;28;20538;-73
2022/05/25 00:34:29;;;;;;;2.20;1.70;;;12.80;90.30;;;;;;4980267;28;20056;-74
2022/05/25 00:36:55;;;;;;;3.40;2.25;;;12.80;90.30;;;;;;4977640;28;20463;-73
2022/05/25 00:39:23;;;;;;;2.58;1.67;;;12.80;90.10;;;;;;4982333;28;20026;-73
2022/05/25 00:41:52;;;;;;;2.25;1.52;;;12.80;89.70;;;;;;4977186;28;20056;-73
2022/05/25 00:44:18;;;;;;;1.92;1.58;;;12.70;90.10;;;;;;4980371;28;20041;-73
2022/05/25 00:46:44;;;;;;;2.47;1.52;;;12.60;90.00;;;;;;4976646;28;20030;-73
2022/05/25 00:49:33;;;;;;;1.77;1.67;;;12.60;90.20;;;;;;4974831;28;20149;-73
2022/05/25 00:52:09;;;;;;;1.88;1.77;;;12.60;90.40;;;;;;4979249;28;20035;-73
2022/05/25 00:54:42;;;;;;;1.80;1.70;;;12.60;90.40;;;;;;4981993;28;20142;-73
2022/05/25 00:57:14;;;;;;;2.22;1.70;;;12.50;90.50;;;;;;4984350;28;20058;-73
2022/05/25 01:00:10;;;;;;;2.10;1.90;;;12.50;90.50;;;;;;4979185;28;20100;-73
2022/05/25 01:02:44;;;;;;;2.60;1.65;;;12.50;90.50;;;;;;4979016;28;20418;-73
2022/05/25 01:05:12;;;;;;;2.70;1.70;;;12.50;90.40;;;;;;4975210;28;20379;-73
2022/05/25 01:07:50;;;;;;;2.25;1.67;;;12.50;90.50;;;;;;4976049;28;20038;-73
2022/05/25 01:10:32;;;;;;;2.90;2.05;;;12.50;90.50;;;;;;4975655;28;20649;-72
2022/05/25 01:13:04;;;;;;;2.00;1.80;;;12.50;90.30;;;;;;4979679;28;20033;-73
2022/05/25 01:15:41;;;;;;;1.67;1.58;;;12.40;89.80;;;;;;4977350;28;20065;-73
2022/05/25 01:18:07;;;;;;;2.90;1.77;;;12.40;89.80;;;;;;4977440;28;20085;-73
2022/05/25 01:20:48;;;;;;;3.13;1.80;;;12.30;90.10;;;;;;4978642;28;20642;-73
2022/05/25 01:23:45;;;;;;;3.08;1.90;;;12.20;90.60;;;;;;4976192;28;20042;-73
2022/05/25 01:26:35;;;;;;;2.85;2.25;;;12.20;90.90;;;;;;4980226;28;20026;-72
2022/05/25 01:29:39;;;;;;;2.05;1.73;;;12.30;91.40;;;;;;4974302;28;20620;-73
2022/05/25 01:32:26;;;;;;;2.92;1.77;;;12.30;91.30;;;;;;4980208;28;20053;-72
2022/05/25 01:35:00;;;;;;;;;;;12.30;91.40;;;;;;4977587;28;20113;-72
2022/05/25 01:37:52;;;;;;;1.65;1.55;;;12.30;91.60;;;;;;4977683;28;19936;-70
2022/05/25 01:40:35;;;;;;;2.55;1.73;;;12.30;91.40;;;;;;4974105;28;20053;-70
2022/05/25 01:43:14;;;;;;;3.10;1.77;;;12.30;91.10;;;;;;4978420;28;20039;-70
2022/05/25 01:46:09;;;;;;;4.38;2.05;;;12.30;90.70;;;;;;4977648;28;20772;-68
2022/05/25 01:48:38;;;;;;;4.30;1.60;;;12.30;90.50;;;;;;4978745;28;20026;-70
2022/05/25 01:51:10;;;;;;;2.13;1.92;;;12.30;90.40;;;;;;4976457;28;20030;-69
2022/05/25 01:53:41;;;;;;;3.63;1.98;;;12.30;90.30;;;;;;4975896;28;20137;-70
2022/05/25 01:56:10;;;;;;;2.95;2.05;;;12.30;90.50;;;;;;4981288;28;20080;-70
2022/05/25 01:58:44;;;;;;;2.20;1.90;;;12.30;90.20;;;;;;4980182;28;20088;-70
2022/05/25 02:01:11;;;;;;;2.97;2.10;;;12.20;90.20;;;;;;4973703;28;20101;-70
2022/05/25 02:06:43;;;;;;;2.33;2.10;;;12.00;90.10;;;;;;4971088;28;20045;-70
2022/05/25 02:09:21;;;;;;;3.28;2.40;;;12.00;90.50;;;;;;4970089;28;20038;-70
2022/05/25 02:11:50;;;;;;;1.90;1.80;;;11.90;90.80;;;;;;4980118;28;20034;-70
2022/05/25 02:14:47;;;;;;;2.17;1.88;;;11.90;91.20;;;;;;4972713;28;20513;-70
2022/05/25 02:17:42;;;;;;;2.10;1.90;;;11.90;91.60;;;;;;4976627;28;20031;-70
2022/05/25 02:20:20;;;;;;;2.25;2.05;;;12.00;91.80;;;;;;4973976;28;20093;-70
2022/05/25 02:22:51;;;;;;;3.22;2.28;;;12.00;91.90;;;;;;4972265;28;20749;-70
2022/05/25 02:25:40;;;;;;;3.47;2.38;;;11.90;92.00;;;;;;4975827;28;20031;-70
2022/05/25 02:28:14;;;;;;;4.72;2.65;;;12.00;92.20;;;;;;4973983;28;20042;-70
2022/05/25 02:30:48;;;;;;;2.95;2.65;;;12.00;92.30;;;;;;4967941;28;20066;-70
2022/05/25 02:33:20;;;;;;;2.47;2.28;;;12.00;92.40;;;;;;4976866;28;20031;-70
2022/05/25 02:35:47;;;;;;;2.78;2.58;;;12.00;92.50;;;;;;4975349;28;20035;-70
2022/05/25 02:38:14;;;;;;;4.38;2.53;;;12.10;92.60;;;;;;4978455;28;20093;-70
2022/05/25 02:40:41;;;;;;;2.40;2.15;;;12.10;92.40;;;;;;4971822;28;20025;-69
2022/05/25 02:43:08;;;;;;;3.90;2.70;;;12.10;92.30;;;;;;4977096;28;20050;-70
2022/05/25 02:45:34;;;;;;;4.30;2.30;;;12.10;92.30;;;;;;4973977;28;20161;-70
2022/05/25 02:48:00;;;;;;;2.60;2.40;;;12.10;92.20;;;;;;4980097;28;20019;-70
2022/05/25 02:50:26;;;;;;;2.80;2.15;;;12.10;92.10;;;;;;4971178;28;20041;-70
2022/05/25 02:52:52;;;;;;;3.72;2.08;;;12.10;92.00;;;;;;4975169;28;20023;-70
2022/05/25 02:55:18;;;;;;;2.20;2.05;;;12.10;91.80;;;;;;4974634;28;20038;-70
2022/05/25 02:57:44;;;;;;;3.50;2.47;;;12.10;91.80;;;;;;4969419;28;20030;-70
2022/05/25 03:00:11;;;;;;;3.55;2.45;;;12.00;91.80;;;;;;4975025;28;20023;-70
2022/05/25 03:02:37;;;;;;;2.70;2.00;;;12.00;91.90;;;;;;4976985;28;20126;-70
2022/05/25 03:05:04;;;;;;;2.55;2.25;;;12.00;92.10;;;;;;4977711;28;20030;-70
2022/05/25 03:07:30;;;;;;;2.47;2.28;;;11.90;92.30;;;;;;4974842;28;20069;-70
2022/05/25 03:09:55;;;;;;;2.95;2.38;;;12.00;92.50;;;;;;4971605;28;20026;-70
2022/05/25 03:12:21;;;;;;;2.50;2.20;;;12.00;92.80;;;;;;4975654;28;20046;-70
2022/05/25 03:14:47;;;;;;;3.03;2.67;;;12.00;92.80;;;;;;4972380;28;20113;-70
2022/05/25 03:17:14;;;;;;;6.68;3.00;;;12.10;92.90;;;;;;4977706;28;20035;-70
2022/05/25 03:19:53;;;;;;;4.07;3.42;;;12.20;92.90;;;;;;4979654;28;20089;-70
2022/05/25 03:22:19;;;;;;;3.15;2.85;;;12.30;93.00;;;;;;4975888;28;20070;-70
2022/05/25 03:24:45;;;;;;;3.65;2.63;;;12.40;93.10;;;;;;4970822;28;20045;-70
2022/05/25 03:27:12;;;;;;;4.18;2.80;;;12.40;92.80;;;;;;4970218;28;20030;-70
2022/05/25 03:29:37;;;;;;;2.90;2.60;;;12.50;92.50;;;;;;4969943;28;20041;-70
2022/05/25 03:32:03;;;;;;;2.60;2.40;;;12.60;92.30;;;;;;4973677;28;20027;-69
2022/05/25 03:34:29;;;;;;;3.85;2.53;;;12.60;92.30;;;;;;4978809;28;20034;-70
2022/05/25 03:36:55;;;;;;;3.42;2.60;;;12.60;92.20;;;;;;4968286;28;20023;-69
2022/05/25 03:39:25;;;;;;;3.50;2.42;;;12.60;92.30;;;;;;4974900;28;20061;-70
2022/05/25 03:42:06;;;;;;;3.97;2.55;;;12.60;92.50;;;;;;4973808;28;20030;-69
2022/05/25 03:44:32;;;;;;;3.15;2.50;;;12.70;92.60;;;;;;4967803;28;20116;-70
2022/05/25 03:46:58;;;;;;;2.83;2.42;;;12.70;92.50;;;;;;4978163;28;20077;-70
2022/05/25 03:49:24;;;;;;;2.67;2.47;;;12.80;92.30;;;;;;4975279;28;20478;-70
2022/05/25 03:51:50;;;;;;;4.30;2.28;;;12.80;92.20;;;;;;4968409;28;20038;-70
2022/05/25 03:54:16;;;;;;;2.20;2.00;;;12.90;91.70;;;;;;4981679;28;20101;-70
2022/05/25 03:56:41;;;;;;;6.10;2.13;;;12.90;91.40;;;;;;4979261;28;20053;-70
2022/05/25 03:59:07;;;;;;;3.20;2.45;;;13.00;91.20;;;;;;4978807;28;20041;-70
2022/05/25 04:01:36;;;;;;;2.67;2.35;;;13.10;91.00;;;;;;4974181;28;20030;-70
2022/05/25 04:04:02;;;;;;;2.10;1.90;;;13.10;90.80;;;;;;4980473;28;20089;-70
2022/05/25 04:06:28;;;;;;;2.53;2.30;;;13.10;90.70;;;;;;4981806;28;20038;-70
2022/05/25 04:08:53;;;;;;;2.20;2.00;;;13.10;90.90;;;;;;4979253;28;20090;-70
2022/05/25 04:11:19;;;;;;;2.35;2.13;;;13.20;91.10;;;;;;4978487;28;20042;-70
2022/05/25 04:13:45;;;;;;;4.55;2.92;;;13.30;91.30;;;;;;4981432;28;20172;-70
2022/05/25 04:16:11;;;;;;;3.20;2.88;;;13.30;91.40;;;;;;4974638;28;20030;-70
2022/05/25 04:18:37;;;;;;;3.55;3.15;;;13.50;91.30;;;;;;4971471;28;20023;-70
2022/05/25 04:21:03;;;;;;;7.32;3.05;;;13.60;91.50;;;;;;4978093;28;20035;-70
2022/05/25 04:23:29;;;;;;;4.28;3.17;;;13.60;91.00;;;;;;4980317;28;20041;-70
2022/05/25 04:25:56;;;;;;;3.33;2.78;;;13.70;90.80;;;;;;4976315;28;20117;-70
2022/05/25 04:28:21;;;;;;;3.85;3.45;;;13.70;90.70;;;;;;4974841;28;20046;-70
2022/05/25 04:30:47;;;;;;;5.07;3.40;;;13.80;90.60;;;;;;4971935;28;20115;-70
2022/05/25 04:33:14;;;;;;;4.90;3.33;;;13.90;90.40;;;;;;4972067;28;20046;-70
2022/05/25 04:35:40;;;;;;;4.35;3.55;;;14.00;90.10;;;;;;4973521;28;20886;-70
2022/05/25 04:38:06;;;;;;;4.78;3.10;;;14.10;89.50;;;;;;4980051;28;20038;-70
2022/05/25 04:40:35;;;;;;;3.85;3.45;;;14.10;88.60;;;;;;4979488;28;20030;-70
2022/05/25 04:43:04;;;;;;;5.53;3.45;;;14.20;88.40;;;;;;4970512;28;20058;-70
2022/05/25 04:45:31;;;;;;;2.80;2.60;;;14.30;89.20;;;;;;4976806;28;20052;-70
2022/05/25 04:47:59;;;;;;;3.95;2.90;;;14.40;88.00;;;;;;4974703;28;20041;-70
2022/05/25 04:50:28;;;;;;;5.55;3.75;;;14.40;87.90;;;;;;4977195;28;20034;-70
2022/05/25 04:52:56;;;;;;;3.40;3.10;;;14.50;88.20;;;;;;4978236;28;20150;-70
2022/05/25 04:58:20;;;;;;;3.88;3.25;;;14.80;87.60;;;;;;4980929;28;20453;-70
2022/05/25 05:00:47;;;;;;;3.47;3.17;;;14.90;87.10;;;;;;4973685;28;20052;-70
2022/05/25 05:03:12;;;;;;;5.80;3.67;;;15.10;86.90;;;;;;4976710;28;20066;-70
2022/05/25 05:05:38;;;;;;;3.72;3.33;;;15.20;86.20;;;;;;4981676;28;20065;-70
2022/05/25 05:08:05;;;;;;;5.68;3.13;;;15.40;85.70;;;;;;4980003;28;20034;-70
2022/05/25 05:10:31;;;;;;;4.97;3.55;;;15.50;84.70;;;;;;4974729;28;20093;-70
2022/05/25 05:12:57;;;;;;;5.70;3.40;;;15.60;84.40;;;;;;4978932;28;20422;-70
2022/05/25 05:15:22;;;;;;;4.28;3.53;;;15.70;83.80;;;;;;4975337;28;20095;-70
2022/05/25 05:17:48;;;;;;;4.07;3.58;;;15.80;84.00;;;;;;4970074;28;20045;-71
2022/05/25 05:20:31;;;;;;;4.78;3.17;;;15.90;82.40;;;;;;4969395;28;20123;-71
2022/05/25 05:22:57;;;;;;;4.72;3.60;;;16.00;82.10;;;;;;4980234;28;20077;-70
2022/05/25 05:25:23;;;;;;;4.55;3.40;;;16.20;82.50;;;;;;4983050;28;20034;-70
2022/05/25 05:27:49;;;;;;;4.22;3.83;;;16.30;81.80;;;;;;4977216;28;20045;-70
2022/05/25 05:30:18;;;;;;;4.95;3.88;;;16.40;81.10;;;;;;4972460;28;20030;-71
2022/05/25 05:32:44;;;;;;;4.97;3.65;;;16.60;80.40;;;;;;4973113;28;20046;-71
2022/05/25 05:35:10;;;;;;;6.13;4.40;;;16.70;80.90;;;;;;4972584;28;20034;-71
2022/05/25 05:37:45;;;;;;;5.10;4.05;;;16.90;79.10;;;;;;4977186;28;20237;-70
2022/05/25 05:40:13;;;;;;;4.00;3.70;;;17.00;78.50;;;;;;4982752;28;20042;-71
2022/05/25 05:42:41;;;;;;;3.67;3.33;;;17.10;77.60;;;;;;4976826;28;20450;-71
2022/05/25 05:45:14;;;;;;;4.28;3.47;;;17.30;77.20;;;;;;4980285;28;20596;-71
2022/05/25 05:48:15;;;;;;;4.93;4.07;;;17.40;76.60;;;;;;4977753;28;20035;-71
2022/05/25 05:50:42;;;;;;;5.15;4.00;;;17.60;76.00;;;;;;4961771;28;20057;-71
2022/05/25 05:53:11;;;;;;;3.75;3.45;;;17.80;74.90;;;;;;4966703;28;20027;-71
2022/05/25 05:55:39;;;;;;;4.57;4.05;;;18.00;74.90;;;;;;4975241;28;20041;-70
2022/05/25 05:58:05;;;;;;;5.28;3.38;;;18.00;74.40;;;;;;4975628;28;20100;-71
2022/05/25 06:00:30;;;;;;;5.20;3.45;;;18.00;74.50;;;;;;4973092;28;20027;-70
2022/05/25 06:02:57;;;;;;;3.97;3.38;;;18.10;74.40;;;;;;4971637;28;20034;-71
2022/05/25 06:05:22;;;;;;;4.78;3.40;;;18.20;74.00;;;;;;4975044;28;20030;-71
2022/05/25 06:07:48;;;;;;;4.97;3.40;;;18.40;73.30;;;;;;4972509;28;20331;-71
2022/05/25 06:10:14;;;;;;;3.92;3.53;;;18.50;72.40;;;;;;4974330;28;20406;-70
2022/05/25 06:12:40;;;;;;;4.75;3.33;;;18.70;73.00;;;;;;4977339;28;20037;-71
2022/05/25 06:20:36;;;;;;;4.25;3.10;;;19.00;69.50;;;;;;4974847;28;20030;-71
2022/05/25 06:23:02;;;;;;;3.92;3.15;;;19.10;68.00;;;;;;4972711;28;20152;-70
2022/05/25 06:25:28;;;;;;;4.47;2.92;;;19.10;68.10;;;;;;4977014;28;20161;-71
2022/05/25 06:27:54;;;;;;;3.47;2.95;;;19.20;67.70;;;;;;4977109;28;20034;-71
2022/05/25 06:30:20;;;;;;;6.38;2.90;;;19.20;67.30;;;;;;4970118;28;20117;-71
2022/05/25 06:32:46;;;;;;;3.10;2.80;;;19.10;67.40;;;;;;4973332;28;20042;-71
2022/05/25 06:35:13;;;;;;;3.75;2.70;;;19.10;68.00;;;;;;4971156;28;20035;-70
2022/05/25 06:37:39;;;;;;;3.97;2.97;;;19.20;67.70;;;;;;4973644;28;20493;-71
2022/05/25 06:40:06;;;;;;;3.45;2.83;;;19.20;67.60;;;;;;4976440;28;20035;-71
2022/05/25 06:42:31;;;;;;;4.25;3.10;;;19.30;68.00;;;;;;4976273;28;20049;-71
2022/05/25 06:44:57;;;;;;;3.90;2.83;;;19.40;66.50;;;;;;4974432;28;20062;-71
2022/05/25 06:47:23;;;;;;;3.85;3.28;;;19.40;66.50;;;;;;4970100;28;20066;-70
2022/05/25 06:49:53;;;;;;;3.40;2.40;;;19.30;65.80;;;;;;4975784;28;20045;-71
2022/05/25 06:52:18;;;;;;;4.25;3.58;;;19.30;67.20;;;;;;4976395;28;20038;-71
2022/05/25 06:54:44;;;;;;;5.22;3.10;;;19.50;66.20;;;;;;4977363;28;20037;-71
2022/05/25 06:57:10;;;;;;;5.28;3.15;;;19.60;66.40;;;;;;4981249;28;20474;-71
2022/05/25 06:59:36;;;;;;;6.65;2.80;;;19.80;65.90;;;;;;4976247;28;20027;-71
2022/05/25 07:02:02;;;;;;;3.92;2.15;;;19.80;65.30;;;;;;4976571;28;20026;-71
2022/05/25 07:04:28;;;;;;;3.08;2.55;;;19.70;66.30;;;;;;4974053;28;20117;-71
2022/05/25 07:06:54;;;;;;;3.78;2.65;;;19.80;66.20;;;;;;4974349;28;20112;-71
2022/05/25 07:09:20;;;;;;;5.78;2.67;;;19.80;65.30;;;;;;4974811;28;20031;-71
2022/05/25 07:11:50;;;;;;;7.10;3.35;;;19.70;65.40;;;;;;4980037;28;20442;-71
2022/05/25 07:14:16;;;;;;;3.78;3.00;;;19.60;65.30;;;;;;4975110;28;20483;-71
2022/05/25 07:16:42;;;;;;;3.78;2.92;;;19.70;66.20;;;;;;4970009;28;20041;-71
2022/05/25 07:19:07;;;;;;;5.07;3.30;;;19.90;65.70;;;;;;4972068;28;20073;-71
2022/05/25 07:21:34;;;;;;;6.10;2.80;;;20.10;64.40;;;;;;4975099;28;20041;-71
2022/05/25 07:24:01;;;;;;;4.38;3.22;;;20.20;64.00;;;;;;4974753;28;20041;-70
2022/05/25 07:26:29;;;;;;;4.47;3.35;;;20.30;63.40;;;;;;4971309;28;20494;-70
2022/05/25 07:28:55;;;;;;;5.60;3.35;;;20.40;63.40;;;;;;4976709;28;20034;-70
2022/05/25 07:31:38;;;;;;;3.72;3.30;;;20.60;63.00;;;;;;4972160;28;20096;-71
2022/05/25 07:34:13;;;;;;;3.40;2.78;;;20.60;61.40;;;;;;4977885;28;20046;-71
2022/05/25 07:36:41;;;;;;;6.20;3.42;;;20.40;63.40;;;;;;4977455;28;20034;-70
2022/05/25 07:39:11;;;;;;;5.57;3.40;;;20.40;63.70;;;;;;4977945;28;20539;-70
2022/05/25 07:41:40;;;;;;;4.43;3.20;;;20.50;63.20;;;;;;4980003;28;20034;-70
2022/05/25 07:44:14;;;;;;;3.40;2.60;;;20.70;61.90;;;;;;4978016;28;20034;-74
2022/05/25 07:46:40;;;;;;;3.38;2.42;;;20.60;62.40;;;;;;4965309;28;20074;-71
2022/05/25 07:49:05;;;;;;;3.25;2.22;;;20.50;62.40;;;;;;4976854;28;20080;-70
2022/05/25 07:51:31;;;;;;;2.70;2.22;;;20.50;63.20;;;;;;4981561;28;20035;-69
2022/05/25 07:53:59;;;;;;;3.65;2.40;;;20.80;63.00;;;;;;4975397;28;20034;-68
2022/05/25 07:56:27;;;;;;;4.10;2.40;;;21.00;63.00;;;;;;4982444;28;20035;-70
2022/05/25 07:58:54;;;;;;;3.97;2.00;;;21.30;60.50;;;;;;4977758;28;20487;-71
2022/05/25 08:05:43;;;;;;;6.03;2.35;;;21.20;60.60;;;;;;4979721;28;20035;-70
2022/05/25 08:06:52;;;;;;;3.05;2.00;;;21.30;59.00;;;;;;4978962;28;20136;-70
2022/05/25 08:09:18;;;;;;;2.38;2.17;;;21.20;60.30;;;;;;4977979;28;20163;-70
2022/05/25 08:11:44;;;;;;;3.33;2.03;;;21.30;60.20;;;;;;4975776;28;20026;-70
2022/05/25 08:14:10;;;;;;;4.78;2.00;;;21.40;59.70;;;;;;4978969;28;20502;-68
2022/05/25 08:16:36;;;;;;;4.80;1.90;;;21.30;59.50;;;;;;4977736;28;20026;-69
2022/05/25 08:19:01;;;;;;;3.05;2.15;;;21.40;60.10;;;;;;4973146;28;20034;-69
2022/05/25 08:21:27;;;;;;;4.18;2.05;;;21.30;59.20;;;;;;4972739;28;20019;-69
2022/05/25 08:23:53;;;;;;;4.75;2.40;;;21.20;58.80;;;;;;4979788;28;20030;-69
2022/05/25 08:26:18;;;;;;;3.55;1.85;;;21.00;59.20;;;;;;4977242;28;20030;-67
2022/05/25 08:28:44;;;;;;;3.28;1.80;;;20.90;60.60;;;;;;4977980;28;20038;-69
2022/05/25 08:31:10;;;;;;;4.80;2.28;;;20.70;59.50;;;;;;4974186;28;20034;-71
2022/05/25 08:33:35;;;;;;;3.10;1.83;;;20.40;60.00;;;;;;4975109;28;20042;-67
2022/05/25 08:36:01;;;;;;;2.83;2.13;;;20.20;61.60;;;;;;4975868;28;20121;-68
2022/05/25 08:38:27;;;;;;;2.72;1.98;;;20.20;62.70;;;;;;4972374;28;20035;-67
2022/05/25 08:40:54;;;;;;;3.28;2.03;;;20.30;61.60;;;;;;4978354;28;20134;-67
2022/05/25 08:43:35;;;;;;;3.35;2.30;;;20.30;61.40;;;;;;4972996;28;20065;-68
2022/05/25 08:46:05;;;;;;;3.47;2.45;;;20.40;59.60;;;;;;4970830;28;20031;-68
2022/05/25 08:48:33;;;;;;;6.53;2.38;;;20.30;58.80;;;;;;4971569;28;20434;-68
2022/05/25 08:51:03;;;;;;;4.93;2.33;;;20.30;58.10;;;;;;4981839;28;20934;-68
2022/05/25 08:53:29;;;;;;;2.35;1.80;;;20.20;60.10;;;;;;4973260;28;20031;-68
2022/05/25 08:56:28;;;;;;;4.25;2.33;;;20.40;59.60;;;;;;4971444;28;20098;-70
2022/05/25 08:59:15;;;;;;;3.25;2.00;;;20.10;58.90;;;;;;4975142;28;20034;-69
2022/05/25 09:01:47;;;;;;;3.75;2.10;;;20.00;60.40;;;;;;4971090;28;20101;-68
2022/05/25 09:04:55;;;;;;;3.17;2.10;;;20.10;59.10;;;;;;4976234;28;20042;-68
2022/05/25 09:07:28;;;;;;;5.68;1.88;;;20.30;57.50;;;;;;4952163;28;20046;-69
2022/05/25 09:09:54;;;;;;;4.10;2.58;;;20.30;58.70;;;;;;4974073;28;20121;-68
2022/05/25 09:12:37;;;;;;;4.60;2.15;;;20.50;59.20;;;;;;4974219;28;20117;-69
2022/05/25 09:15:09;;;;;;;3.20;2.42;;;20.70;57.80;;;;;;4974468;28;20474;-68
2022/05/25 09:17:37;;;;;;;2.53;1.50;;;20.90;57.40;;;;;;4979778;28;20045;-68
2022/05/25 09:20:06;;;;;;;3.10;1.90;;;20.90;57.20;;;;;;4970148;28;20093;-68
2022/05/25 09:22:31;;;;;;;2.00;1.80;;;21.20;56.20;;;;;;4983610;28;20034;-66
2022/05/25 09:25:01;;;;;;;3.35;1.80;;;21.30;56.10;;;;;;4971345;28;20772;-75
2022/05/25 09:27:33;;;;;;;2.67;1.50;;;21.40;56.40;;;;;;4973878;28;20359;-69
2022/05/25 09:30:01;;;;;;;3.20;1.20;;;21.50;54.00;;;;;;4973894;28;20053;-63
2022/05/25 09:32:36;;;;;;;2.50;1.40;;;21.50;53.70;;;;;;4969643;28;20100;-68
2022/05/25 09:35:27;;;;;;;2.70;1.50;;;21.70;54.40;;;;;;4974749;28;20038;-69
2022/05/25 09:37:57;;;;;;;1.92;1.00;;;21.70;54.00;;;;;;4974629;28;20913;-70
2022/05/25 09:40:31;;;;;;;1.60;1.27;;;21.60;54.20;;;;;;4974915;28;20080;-70
2022/05/25 09:42:57;;;;;;;2.13;1.30;;;21.40;54.90;;;;;;4976570;28;20034;-69
2022/05/25 09:45:39;;;;;;;6.85;1.92;;;21.10;54.60;;;;;;4971003;28;20031;-69
2022/05/25 09:48:27;;;;;;;3.72;1.40;;;21.00;54.60;;;;;;4975612;28;20077;-73
2022/05/25 09:51:17;;;;;;;1.85;1.10;;;21.20;54.60;;;;;;4966755;28;20074;-71
2022/05/25 09:54:14;;;;;;;1.42;1.08;;;21.30;54.50;;;;;;4972926;28;20093;-70
2022/05/25 09:56:46;;;;;;;2.80;1.08;;;21.50;54.10;;;;;;4963895;28;20038;-69
2022/05/25 09:59:35;;;;;;;2.45;1.23;;;21.90;54.00;;;;;;4971031;28;20039;-75
2022/05/25 10:02:02;;;;;;;2.60;1.38;;;22.30;53.60;;;;;;4965617;28;20086;-69
2022/05/25 10:04:37;;;;;;;2.10;1.25;;;22.60;53.40;;;;;;4970530;28;20022;-69
2022/05/25 10:07:24;;;;;;;2.08;1.13;;;22.90;52.00;;;;;;4971891;28;20031;-69
2022/05/25 10:09:52;;;;;;;2.53;1.33;;;22.80;51.50;;;;;;4972287;28;20537;-69
2022/05/25 10:12:39;;;;;;;1.25;1.08;;;22.80;51.10;;;;;;4972401;28;20038;-69
2022/05/25 10:15:14;;;;;;;1.38;0.95;;;22.90;50.80;;;;;;4970171;28;20034;-69
2022/05/25 10:17:43;;;;;;;2.25;0.88;;;22.70;49.70;;;;;;4968750;28;20031;-68
2022/05/25 10:20:25;;;;;;;2.97;1.15;;;22.70;50.80;;;;;;4967277;28;20037;-68
2022/05/25 10:23:08;;;;;;;3.78;1.13;;;22.60;50.60;;;;;;4969338;28;20031;-68
2022/05/25 10:25:55;;;;;;;1.08;0.80;;;22.60;50.00;;;;;;4970199;28;20057;-69
2022/05/25 10:28:35;;;;;;;0.70;0.70;;;22.50;50.70;;;;;;4967879;28;20225;-69
2022/05/25 10:36:57;;;;;;;4.28;0.90;;;22.20;51.00;;;;;;4968346;28;20034;-72
2022/05/25 10:39:28;;;;;;;1.58;0.77;;;22.30;50.60;;;;;;4974406;28;20050;-68
2022/05/25 10:42:22;;;;;;;2.85;1.02;;;22.50;50.10;;;;;;4972928;28;20038;-69
2022/05/25 10:45:06;;;;;;;1.42;0.70;;;22.50;50.00;;;;;;4968745;28;20141;-69
2022/05/25 10:47:54;;;;;;;1.77;0.68;;;22.30;50.30;;;;;;4971115;28;20598;-69
2022/05/25 10:50:35;;;;;;;2.42;0.75;;;23.40;49.20;;;;;;4967653;28;20145;-69
2022/05/25 10:53:21;;;;;;;0.68;0.68;;;23.40;48.20;;;;;;4965587;28;20632;-68
2022/05/25 10:56:12;;;;;;;2.20;1.27;;;23.00;49.10;;;;;;4979080;28;20045;-69
2022/05/25 10:59:11;;;;;;;2.88;0.85;;;22.70;49.70;;;;;;4967364;28;20030;-69
2022/05/25 11:01:56;;;;;;;3.53;1.20;;;22.60;49.90;;;;;;4971005;28;20032;-69
2022/05/25 11:04:40;;;;;;;3.55;0.80;;;22.60;49.80;;;;;;4969639;28;20045;-69
2022/05/25 11:07:26;;;;;;;46.85;22.98;;;22.50;49.70;;;;;;4977443;28;20058;-69
2022/05/25 11:09:58;;;;;;;;;;;22.30;49.30;;;;;;4971266;28;20031;-69
2022/05/25 11:12:34;;;;;;;2.50;1.00;;;22.20;49.10;;;;;;4975133;28;19968;-68
2022/05/25 11:15:14;;;;;;;101.00;36.45;;;21.90;50.00;;;;;;4972119;28;20037;-68
2022/05/25 11:18:07;;;;;;;43.90;19.58;;;21.70;51.90;;;;;;4972700;28;20031;-69
2022/05/25 11:21:17;;;;;;;4.07;1.92;;;21.60;51.70;;;;;;4975154;28;20062;-69
2022/05/25 11:24:19;;;;;;;2.20;1.30;;;21.50;50.90;;;;;;4961163;28;20433;-66
2022/05/25 11:26:53;;;;;;;1.35;0.95;;;21.40;51.60;;;;;;4965950;28;20889;-67
2022/05/25 11:29:37;;;;;;;1.60;1.30;;;21.40;51.80;;;;;;4976135;28;20554;-67
2022/05/25 11:32:29;;;;;;;3.00;1.88;;;21.20;52.60;;;;;;4971843;28;20134;-68
2022/05/25 11:35:14;;;;;;;1.88;1.08;;;21.00;54.00;;;;;;4973851;28;20600;-69
2022/05/25 11:37:54;;;;;;;1.55;0.70;;;21.00;52.80;;;;;;4974511;28;20034;-68
2022/05/25 11:40:41;;;;;;;1.52;0.85;;;21.00;53.10;;;;;;4976223;28;20027;-69
2022/05/25 11:43:19;;;;;;;0.90;0.70;;;21.30;53.40;;;;;;4972190;28;20038;-68
2022/05/25 11:46:02;;;;;;;2.95;0.90;;;21.50;51.50;;;;;;4970254;28;20114;-67
2022/05/25 11:51:38;;;;;;;2.38;0.68;;;21.80;50.30;;;;;;5201229;23;20600;-71
2022/05/25 11:54:07;;;;;;;5.10;0.60;;;21.90;49.50;;;;;;4993221;28;20131;-70
2022/05/25 11:57:04;;;;;;;1.23;0.55;;;22.00;50.00;;;;;;4999615;28;20042;-71
2022/05/25 11:59:39;;;;;;;1.98;1.00;;;22.20;49.50;;;;;;4989669;28;20035;-71
2022/05/25 12:02:31;;;;;;;1.50;0.77;;;22.40;47.80;;;;;;5001345;28;20104;-70
2022/05/25 12:05:23;;;;;;;3.88;0.68;;;22.70;46.90;;;;;;4994968;28;20121;-71
2022/05/25 12:08:22;;;;;;;1.65;0.70;;;22.60;47.60;;;;;;4993941;28;20041;-72
2022/05/25 12:11:14;;;;;;;1.65;1.35;;;22.60;47.60;;;;;;4997717;28;20079;-71
2022/05/25 12:13:57;;;;;;;4.20;1.25;;;22.60;49.30;;;;;;4950027;28;20042;-71
2022/05/25 12:16:32;;;;;;;2.65;0.70;;;22.60;47.10;;;;;;4998527;28;20036;-71
2022/05/25 12:25:10;;;;;;;0.90;0.50;;;22.70;45.70;;;;;;5000140;23;20565;-72
2022/05/25 12:27:45;;;;;;;2.00;0.73;;;22.80;46.70;;;;;;4991663;28;20397;-71
2022/05/25 12:30:21;;;;;;;0.88;0.50;;;23.10;46.40;;;;;;5010334;28;20115;-70
2022/05/25 12:32:48;;;;;;;1.48;0.60;;;23.20;44.90;;;;;;5007966;28;20555;-70
2022/05/25 12:35:15;;;;;;;0.98;0.70;;;23.40;44.80;;;;;;4994590;28;20041;-70
2022/05/25 12:37:45;;;;;;;1.48;0.73;;;23.50;44.30;;;;;;4978249;28;20178;-70
2022/05/25 12:40:13;;;;;;;1.02;0.70;;;23.50;44.30;;;;;;5000246;28;20121;-69
2022/05/25 12:53:29;;;;;;;3.60;0.70;;;23.20;44.10;;;;;;5133557;22;20061;-70
2022/05/25 12:56:18;;;;;;;2.70;0.40;;;23.20;44.00;;;;;;4981189;28;20057;-71
2022/05/25 12:58:53;;;;;;;0.47;0.40;;;23.10;43.30;;;;;;4976862;28;20100;-71
2022/05/25 13:01:22;;;;;;;1.80;0.50;;;22.90;44.40;;;;;;4970331;28;20035;-70
2022/05/25 13:03:47;;;;;;;2.50;0.63;;;22.70;45.00;;;;;;4975640;28;20042;-70
2022/05/25 13:06:18;;;;;;;2.80;0.50;;;22.60;44.20;;;;;;4976450;28;20035;-70
2022/05/25 13:08:47;;;;;;;0.85;0.60;;;22.60;45.20;;;;;;4975713;28;20108;-69
2022/05/25 13:11:42;;;;;;;3.33;0.65;;;22.80;45.10;;;;;;4980950;28;20034;-70
2022/05/25 13:14:17;;;;;;;2.22;0.65;;;22.70;44.30;;;;;;4983607;28;20049;-70
2022/05/25 13:16:46;;;;;;;2.10;0.70;;;22.60;46.00;;;;;;4980899;28;20030;-70
2022/05/25 13:22:03;;;;;;;3.25;1.08;;;23.00;44.90;;;;;;5156396;23;20176;-69
2022/05/25 13:41:13;;;;;;;3.25;0.70;;;22.00;48.30;;;;;;4977753;28;20065;-70
2022/05/25 13:43:58;;;;;;;1.02;0.50;;;21.90;47.80;;;;;;4956140;28;20049;-73
2022/05/25 13:46:42;;;;;;;0.30;0.30;;;21.80;47.40;;;;;;4972492;28;20034;-72
2022/05/25 13:51:50;;;;;;;1.13;0.47;;;21.40;48.40;;;;;;5584453;23;20464;-70
2022/05/25 13:54:26;;;;;;;1.75;0.60;;;21.40;48.40;;;;;;4992952;28;20145;-70
2022/05/25 13:56:52;;;;;;;1.85;0.60;;;21.40;48.60;;;;;;4997087;28;20038;-70
2022/05/25 13:59:22;;;;;;;0.85;0.47;;;21.60;47.50;;;;;;4980323;28;20657;-69
2022/05/25 14:01:48;;;;;;;0.57;0.40;;;21.70;46.50;;;;;;4969698;28;20032;-69
2022/05/25 14:04:26;;;;;;;1.92;0.70;;;21.70;47.10;;;;;;4965261;28;20414;-69
2022/05/25 14:06:53;;;;;;;1.63;0.43;;;21.90;47.80;;;;;;4977561;28;20034;-68
2022/05/25 14:12:14;;;;;;;1.38;0.60;;;22.20;47.40;;;;;;4981934;28;20030;-69
2022/05/25 14:14:52;;;;;;;0.47;0.47;;;22.40;47.20;;;;;;4978865;28;20061;-71
2022/05/25 14:17:26;;;;;;;2.42;0.65;;;22.30;46.30;;;;;;4972098;28;20558;-69
2022/05/25 14:19:54;;;;;;;0.73;0.50;;;22.10;47.30;;;;;;4975003;28;20236;-69
2022/05/25 14:22:26;;;;;;;3.10;0.60;;;21.90;48.60;;;;;;4982099;28;20034;-66